Time;durP1;ratioP1;P1;durP2;ratioP2;P2;SDS_P1;SDS_P2;PMS_P1;PMS_P2;Temp;Humidity;BMP_temperature;BMP_pressure;BME280_temperature;BME280_humidity;BME280_pressure;Samples;Min_cycle;Max_cycle;Signal;HPM_P1;HPM_P2
2023/09/30 00:00:58;;;;;;;3.37;1.73;;;16.20;99.90;;;;;;5062559;28;20522;-77
2023/09/30 00:03:24;;;;;;;2.03;1.83;;;16.60;99.90;;;;;;5058447;28;20522;-81
2023/09/30 00:05:53;;;;;;;4.10;3.43;;;16.90;99.90;;;;;;5068543;28;20459;-77
2023/09/30 00:08:20;;;;;;;3.73;1.90;;;17.00;99.90;;;;;;5064738;28;20836;-80
2023/09/30 00:10:47;;;;;;;1.77;1.30;;;17.20;99.90;;;;;;5064314;28;20567;-77
2023/09/30 00:13:14;;;;;;;1.77;1.67;;;17.40;99.90;;;;;;5058821;28;20471;-76
2023/09/30 00:15:41;;;;;;;4.20;2.50;;;17.40;99.90;;;;;;5062361;28;20490;-80
2023/09/30 00:18:09;;;;;;;2.20;1.47;;;17.60;99.90;;;;;;5064038;28;20471;-76
2023/09/30 00:20:36;;;;;;;3.73;2.47;;;17.70;99.90;;;;;;5065670;28;20464;-79
2023/09/30 00:23:05;;;;;;;3.03;2.30;;;17.80;99.90;;;;;;5059919;28;20506;-77
2023/09/30 00:25:33;;;;;;;2.40;2.17;;;17.90;99.90;;;;;;5063674;28;20985;-76
2023/09/30 00:28:00;;;;;;;4.70;1.90;;;17.90;99.90;;;;;;5066682;28;20451;-79
2023/09/30 00:30:26;;;;;;;2.17;2.00;;;17.90;99.90;;;;;;5064503;28;20491;-82
2023/09/30 00:32:53;;;;;;;2.90;2.17;;;18.00;99.90;;;;;;5065838;28;20493;-77
2023/09/30 00:35:20;;;;;;;6.03;2.60;;;18.00;99.90;;;;;;5067535;28;21179;-77
2023/09/30 00:37:47;;;;;;;6.43;3.27;;;18.00;99.90;;;;;;5066310;28;20505;-77
2023/09/30 00:40:16;;;;;;;2.87;2.53;;;18.00;99.90;;;;;;5064832;28;20471;-77
2023/09/30 00:42:43;;;;;;;3.87;2.00;;;18.00;99.90;;;;;;5067177;28;20463;-77
2023/09/30 00:45:11;;;;;;;2.80;2.20;;;18.10;99.90;;;;;;5066861;28;20443;-77
2023/09/30 00:47:38;;;;;;;2.83;2.63;;;18.10;99.90;;;;;;5063708;28;20993;-76
2023/09/30 00:50:08;;;;;;;4.90;3.73;;;18.10;99.90;;;;;;5060944;28;20494;-77
2023/09/30 00:52:37;;;;;;;2.53;2.30;;;18.10;99.90;;;;;;5069788;28;20494;-78
2023/09/30 00:55:05;;;;;;;6.27;2.70;;;18.10;99.90;;;;;;5065224;28;20502;-77
2023/09/30 00:57:35;;;;;;;4.10;2.70;;;18.10;99.90;;;;;;5062630;28;20465;-78
2023/09/30 01:00:03;;;;;;;5.80;3.00;;;18.10;99.90;;;;;;5066948;28;21177;-77
2023/09/30 01:02:30;;;;;;;3.10;2.77;;;18.10;99.90;;;;;;5049994;28;20457;-75
2023/09/30 01:04:58;;;;;;;5.40;2.27;;;18.20;99.90;;;;;;5062462;28;21184;-80
2023/09/30 01:07:25;;;;;;;3.70;2.70;;;18.10;99.90;;;;;;5064563;28;20548;-77
2023/09/30 01:09:52;;;;;;;2.97;2.53;;;18.10;99.90;;;;;;5063199;28;21080;-76
2023/09/30 01:12:19;;;;;;;9.40;4.03;;;18.10;99.90;;;;;;5054862;28;20496;-77
2023/09/30 01:14:47;;;;;;;5.57;3.53;;;18.10;99.90;;;;;;5058627;28;20444;-77
2023/09/30 01:17:15;;;;;;;6.17;3.37;;;18.10;99.90;;;;;;5065443;28;20471;-79
2023/09/30 01:19:43;;;;;;;4.00;2.80;;;18.10;99.90;;;;;;5068805;28;20444;-77
2023/09/30 01:22:12;;;;;;;6.97;5.57;;;18.10;99.90;;;;;;5068427;28;20605;-76
2023/09/30 01:24:43;;;;;;;6.20;3.87;;;18.10;99.90;;;;;;5069061;28;20435;-77
2023/09/30 01:27:10;;;;;;;5.93;4.17;;;18.10;99.90;;;;;;5067485;28;20468;-81
2023/09/30 01:29:38;;;;;;;7.43;4.90;;;18.10;99.90;;;;;;5067914;28;20444;-78
2023/09/30 01:32:07;;;;;;;12.23;4.40;;;18.10;99.90;;;;;;5056829;28;20488;-77
2023/09/30 01:34:34;;;;;;;4.80;4.33;;;18.00;99.90;;;;;;5067061;28;20917;-80
2023/09/30 01:37:01;;;;;;;9.00;5.17;;;17.80;99.90;;;;;;5067564;28;20467;-78
2023/09/30 01:39:30;;;;;;;5.00;3.77;;;17.70;99.90;;;;;;5062274;28;20579;-82
2023/09/30 01:41:57;;;;;;;4.93;3.60;;;17.70;99.90;;;;;;5067695;28;20515;-76
2023/09/30 01:44:25;;;;;;;8.30;4.37;;;17.70;99.90;;;;;;5067626;28;20950;-78
2023/09/30 01:46:52;;;;;;;5.87;4.10;;;17.70;99.90;;;;;;5068130;28;20950;-79
2023/09/30 01:49:19;;;;;;;9.70;4.47;;;17.70;99.90;;;;;;5066824;28;21141;-80
2023/09/30 01:51:46;;;;;;;7.23;4.07;;;17.70;99.90;;;;;;5066082;28;20495;-77
2023/09/30 01:54:13;;;;;;;6.50;4.57;;;17.70;99.90;;;;;;5068143;28;20509;-79
2023/09/30 01:56:42;;;;;;;5.87;4.40;;;17.70;99.90;;;;;;5067645;28;20511;-78
2023/09/30 01:59:09;;;;;;;6.33;4.20;;;17.60;99.90;;;;;;5059876;28;21234;-81
2023/09/30 02:01:36;;;;;;;7.03;4.70;;;17.60;99.90;;;;;;5066747;28;20457;-81
2023/09/30 02:04:03;;;;;;;8.70;4.47;;;17.60;99.90;;;;;;5055008;28;20517;-76
2023/09/30 02:06:30;;;;;;;9.97;4.20;;;17.60;99.90;;;;;;5062306;28;20443;-78
2023/09/30 02:08:57;;;;;;;9.17;4.77;;;17.60;99.90;;;;;;5068387;28;20447;-80
2023/09/30 02:11:24;;;;;;;5.80;4.30;;;17.50;99.90;;;;;;5067272;28;20491;-81
2023/09/30 02:13:52;;;;;;;11.83;5.17;;;17.50;99.90;;;;;;5068205;28;20537;-78
2023/09/30 02:16:19;;;;;;;6.90;4.30;;;17.50;99.90;;;;;;5068266;28;20501;-77
2023/09/30 02:18:46;;;;;;;15.00;5.30;;;17.50;99.90;;;;;;5063863;28;20456;-77
2023/09/30 02:21:13;;;;;;;8.20;5.03;;;17.60;99.90;;;;;;5067415;28;20440;-76
2023/09/30 02:23:40;;;;;;;9.37;4.53;;;17.50;99.90;;;;;;5066415;28;20550;-80
2023/09/30 02:26:07;;;;;;;10.37;5.43;;;17.50;99.90;;;;;;5062855;28;20536;-77
2023/09/30 02:28:34;;;;;;;8.63;5.17;;;17.50;99.90;;;;;;5067128;28;20483;-79
2023/09/30 02:31:03;;;;;;;9.00;4.30;;;17.50;99.90;;;;;;5066831;28;20879;-75
2023/09/30 02:33:30;;;;;;;10.53;5.23;;;17.40;99.90;;;;;;5059604;28;20514;-80
2023/09/30 02:35:57;;;;;;;12.30;5.33;;;17.50;99.90;;;;;;5066298;28;20459;-77
2023/09/30 02:38:25;;;;;;;8.23;4.93;;;17.50;99.90;;;;;;5066795;28;20510;-77
2023/09/30 02:40:51;;;;;;;6.23;4.67;;;17.40;99.90;;;;;;5067053;28;20502;-77
2023/09/30 02:43:19;;;;;;;10.53;4.97;;;17.40;99.90;;;;;;5065894;28;20468;-78
2023/09/30 02:45:46;;;;;;;10.60;5.63;;;17.30;99.90;;;;;;5067649;28;20444;-78
2023/09/30 02:48:15;;;;;;;11.97;5.77;;;17.30;99.90;;;;;;5057366;28;20521;-77
2023/09/30 02:50:45;;;;;;;10.70;5.40;;;17.30;99.90;;;;;;5066688;28;20864;-77
2023/09/30 02:53:12;;;;;;;9.00;6.90;;;17.30;99.90;;;;;;5066380;28;20681;-80
2023/09/30 02:55:39;;;;;;;10.93;6.50;;;17.30;99.90;;;;;;5065678;28;20512;-77
2023/09/30 02:58:07;;;;;;;8.50;5.37;;;17.30;99.90;;;;;;5066833;28;20501;-78
2023/09/30 03:00:34;;;;;;;11.30;6.37;;;17.20;99.90;;;;;;5066998;28;20452;-78
2023/09/30 03:03:03;;;;;;;11.83;5.43;;;17.20;99.90;;;;;;5058768;28;20467;-77
2023/09/30 03:05:33;;;;;;;9.60;5.00;;;17.30;99.90;;;;;;5062317;28;20468;-81
2023/09/30 03:08:00;;;;;;;12.03;6.20;;;17.30;99.90;;;;;;5066577;28;20443;-77
2023/09/30 03:10:28;;;;;;;7.50;4.60;;;17.40;99.90;;;;;;5063469;28;20495;-78
2023/09/30 03:12:56;;;;;;;9.70;5.93;;;17.40;99.90;;;;;;5066327;28;20541;-78
2023/09/30 03:15:23;;;;;;;11.77;5.03;;;17.40;99.90;;;;;;5061182;28;20460;-77
2023/09/30 03:17:51;;;;;;;13.57;5.63;;;17.40;99.90;;;;;;5066793;28;20443;-79
2023/09/30 03:20:19;;;;;;;10.50;6.17;;;17.40;99.90;;;;;;5066393;28;20494;-81
2023/09/30 03:22:48;;;;;;;9.97;4.33;;;17.40;99.90;;;;;;5066327;28;20448;-77
2023/09/30 03:25:17;;;;;;;10.30;5.50;;;17.30;99.90;;;;;;5066153;28;20440;-77
2023/09/30 03:27:46;;;;;;;11.03;4.57;;;17.40;99.90;;;;;;5062254;28;20526;-81
2023/09/30 03:30:14;;;;;;;6.97;4.70;;;17.40;99.90;;;;;;5061979;28;20452;-77
2023/09/30 03:32:41;;;;;;;7.40;4.60;;;17.30;99.90;;;;;;5062902;28;21378;-77
2023/09/30 03:35:10;;;;;;;10.57;5.27;;;17.30;99.90;;;;;;5066145;28;20517;-78
2023/09/30 03:37:38;;;;;;;10.30;6.43;;;17.20;99.90;;;;;;5065330;28;20547;-78
2023/09/30 03:40:14;;;;;;;10.10;4.93;;;17.20;99.90;;;;;;5065716;28;20942;-78
2023/09/30 03:42:43;;;;;;;13.07;5.80;;;17.20;99.90;;;;;;5066628;28;20786;-81
2023/09/30 03:45:10;;;;;;;15.53;6.20;;;17.20;99.90;;;;;;5062103;28;20459;-81
2023/09/30 03:47:38;;;;;;;9.77;5.67;;;17.20;99.90;;;;;;5065494;28;20472;-78
2023/09/30 03:50:12;;;;;;;10.30;4.80;;;17.10;99.90;;;;;;5065632;28;20456;-78
2023/09/30 03:52:40;;;;;;;10.10;5.80;;;17.10;99.90;;;;;;5065072;28;20495;-80
2023/09/30 03:55:11;;;;;;;8.73;5.10;;;17.10;99.90;;;;;;5065487;28;20475;-77
2023/09/30 03:57:38;;;;;;;10.50;4.50;;;17.10;99.90;;;;;;5066988;28;20472;-79
2023/09/30 04:00:07;;;;;;;10.63;5.20;;;17.10;99.90;;;;;;5063436;28;20471;-78
2023/09/30 04:02:34;;;;;;;10.23;3.90;;;17.10;99.90;;;;;;5065444;28;20486;-78
2023/09/30 04:05:04;;;;;;;11.93;4.67;;;17.10;99.90;;;;;;5060913;28;20467;-78
2023/09/30 04:07:31;;;;;;;7.70;4.13;;;17.10;99.90;;;;;;5066607;28;20820;-78
2023/09/30 04:10:00;;;;;;;14.50;4.73;;;17.10;99.90;;;;;;5065214;28;20459;-81
2023/09/30 04:12:29;;;;;;;8.70;4.57;;;17.10;99.90;;;;;;5065828;28;20483;-78
2023/09/30 04:14:57;;;;;;;9.60;6.50;;;17.00;99.90;;;;;;5066279;28;20483;-78
2023/09/30 04:17:26;;;;;;;9.93;4.97;;;17.00;99.90;;;;;;5053224;28;20506;-77
2023/09/30 04:19:53;;;;;;;11.40;4.90;;;17.00;99.90;;;;;;5062889;28;21238;-78
2023/09/30 04:22:21;;;;;;;12.03;5.60;;;16.90;99.90;;;;;;5065067;28;20448;-79
2023/09/30 04:24:49;;;;;;;10.70;5.40;;;16.90;99.90;;;;;;5065518;28;20459;-78
2023/09/30 04:27:16;;;;;;;9.53;4.07;;;16.90;99.90;;;;;;5065277;28;20970;-78
2023/09/30 04:29:44;;;;;;;15.90;5.40;;;16.80;99.90;;;;;;5065695;28;20451;-79
2023/09/30 04:32:11;;;;;;;8.13;4.70;;;16.90;99.90;;;;;;5066318;28;20599;-80
2023/09/30 04:34:38;;;;;;;14.67;6.43;;;16.90;99.90;;;;;;5064778;28;20468;-81
2023/09/30 04:37:05;;;;;;;8.90;4.23;;;16.80;99.90;;;;;;5066191;28;20444;-77
2023/09/30 04:39:35;;;;;;;14.27;7.73;;;16.80;99.90;;;;;;5064155;28;21098;-76
2023/09/30 04:42:03;;;;;;;11.97;6.20;;;16.80;99.90;;;;;;5067722;28;20867;-78
2023/09/30 04:44:31;;;;;;;13.57;6.03;;;16.70;99.90;;;;;;5069685;28;20440;-78
2023/09/30 04:47:00;;;;;;;7.23;4.50;;;16.60;99.90;;;;;;5069458;28;20495;-79
2023/09/30 04:49:27;;;;;;;12.83;5.70;;;16.50;99.90;;;;;;5067979;28;20945;-78
2023/09/30 04:51:54;;;;;;;13.07;6.20;;;16.40;99.90;;;;;;5068597;28;20487;-78
2023/09/30 04:54:22;;;;;;;9.50;5.20;;;16.40;99.90;;;;;;5068055;28;20513;-77
2023/09/30 04:56:51;;;;;;;17.00;6.80;;;16.40;99.90;;;;;;5068481;28;20511;-79
2023/09/30 04:59:18;;;;;;;15.73;7.90;;;16.50;99.90;;;;;;5068771;28;20539;-78
2023/09/30 05:01:45;;;;;;;12.23;6.20;;;16.50;99.90;;;;;;5067052;28;20496;-78
2023/09/30 05:04:13;;;;;;;15.60;6.47;;;16.50;99.90;;;;;;5065213;28;20480;-78
2023/09/30 05:06:40;;;;;;;13.07;5.87;;;16.50;99.90;;;;;;5065066;28;20452;-78
2023/09/30 05:09:07;;;;;;;14.07;6.83;;;16.50;99.90;;;;;;5068520;28;20513;-78
2023/09/30 05:11:35;;;;;;;13.43;5.87;;;16.60;99.90;;;;;;5068969;28;20440;-78
2023/09/30 05:14:05;;;;;;;12.00;6.23;;;16.70;99.90;;;;;;5063290;28;20464;-81
2023/09/30 05:16:32;;;;;;;11.40;5.27;;;16.70;99.90;;;;;;5067465;28;20471;-80
2023/09/30 05:18:59;;;;;;;10.67;5.53;;;16.70;99.90;;;;;;5065329;28;21041;-78
2023/09/30 05:21:27;;;;;;;11.90;7.13;;;16.70;99.90;;;;;;5067434;28;20448;-78
2023/09/30 05:23:54;;;;;;;10.50;6.20;;;16.70;99.90;;;;;;5067224;28;20536;-80
2023/09/30 05:26:21;;;;;;;13.93;6.30;;;16.70;99.90;;;;;;5068479;28;20514;-78
2023/09/30 05:28:48;;;;;;;10.83;5.73;;;16.70;99.90;;;;;;5069278;28;20502;-76
2023/09/30 05:31:15;;;;;;;10.70;5.60;;;16.60;99.90;;;;;;5068287;28;20472;-78
2023/09/30 05:33:42;;;;;;;13.00;5.60;;;16.60;99.90;;;;;;5066490;28;20483;-78
2023/09/30 05:36:09;;;;;;;14.87;6.57;;;16.60;99.90;;;;;;5068473;28;20959;-79
2023/09/30 05:38:37;;;;;;;16.47;7.57;;;16.60;99.90;;;;;;5068221;28;20493;-77
2023/09/30 05:41:06;;;;;;;12.43;6.40;;;16.50;99.90;;;;;;5068254;28;20448;-76
2023/09/30 05:43:33;;;;;;;12.40;4.57;;;16.60;99.90;;;;;;5066772;28;20459;-78
2023/09/30 05:46:00;;;;;;;16.70;8.00;;;16.60;99.90;;;;;;5067350;28;20544;-78
2023/09/30 05:48:27;;;;;;;12.33;6.27;;;16.60;99.90;;;;;;5067979;28;20444;-81
2023/09/30 05:50:54;;;;;;;13.50;6.53;;;16.60;99.90;;;;;;5067475;28;20483;-76
2023/09/30 05:53:21;;;;;;;10.33;6.30;;;16.60;99.90;;;;;;5066411;28;20537;-75
2023/09/30 05:55:50;;;;;;;13.67;5.10;;;16.60;99.90;;;;;;5067853;28;20508;-81
2023/09/30 05:58:17;;;;;;;12.40;7.10;;;16.70;99.90;;;;;;5067357;28;20451;-79
2023/09/30 06:00:44;;;;;;;10.13;5.30;;;16.70;99.90;;;;;;5064147;28;20468;-78
2023/09/30 06:03:12;;;;;;;10.67;6.80;;;16.80;99.90;;;;;;5062787;28;20538;-78
2023/09/30 06:05:41;;;;;;;12.93;5.93;;;16.70;99.90;;;;;;5061395;28;20464;-80
2023/09/30 06:08:10;;;;;;;11.70;5.60;;;16.70;99.90;;;;;;5067495;28;20942;-78
2023/09/30 06:10:42;;;;;;;10.93;5.93;;;16.80;99.90;;;;;;5065949;28;20498;-78
2023/09/30 06:13:11;;;;;;;10.50;4.87;;;16.80;99.90;;;;;;5065656;28;20495;-77
2023/09/30 06:15:40;;;;;;;22.37;6.60;;;16.90;99.90;;;;;;5067697;28;20535;-77
2023/09/30 06:18:07;;;;;;;15.87;6.30;;;16.90;99.90;;;;;;5065617;28;20466;-78
2023/09/30 06:20:34;;;;;;;14.27;5.83;;;16.90;99.90;;;;;;5064391;28;20471;-77
2023/09/30 06:23:01;;;;;;;12.37;6.33;;;16.90;99.90;;;;;;5063628;28;21210;-77
2023/09/30 06:25:30;;;;;;;11.27;5.90;;;16.90;99.90;;;;;;5065602;28;20475;-75
2023/09/30 06:27:57;;;;;;;13.37;6.83;;;16.80;99.90;;;;;;5060699;28;20538;-74
2023/09/30 06:30:29;;;;;;;15.77;5.27;;;16.80;99.90;;;;;;5067466;28;20444;-78
2023/09/30 06:32:57;;;;;;;11.20;5.23;;;16.80;99.90;;;;;;5066477;28;21106;-77
2023/09/30 06:35:24;;;;;;;11.53;6.00;;;16.80;99.90;;;;;;5062652;28;20461;-77
2023/09/30 06:37:51;;;;;;;11.43;7.00;;;16.80;99.90;;;;;;5058219;28;20472;-78
2023/09/30 06:40:18;;;;;;;11.33;4.57;;;16.90;99.90;;;;;;5060251;28;20538;-78
2023/09/30 06:42:45;;;;;;;8.83;5.47;;;16.90;99.90;;;;;;5059628;28;20513;-78
2023/09/30 06:45:12;;;;;;;11.23;3.73;;;16.90;99.90;;;;;;5065336;28;20501;-78
2023/09/30 06:47:41;;;;;;;14.80;4.93;;;17.00;99.90;;;;;;5063722;28;20460;-77
2023/09/30 06:50:12;;;;;;;9.50;4.60;;;17.00;99.90;;;;;;5062735;28;20452;-77
2023/09/30 06:52:40;;;;;;;10.80;6.37;;;17.00;99.90;;;;;;5066707;28;20978;-77
2023/09/30 06:55:08;;;;;;;9.13;4.60;;;17.10;99.90;;;;;;5065234;28;20471;-78
2023/09/30 06:57:37;;;;;;;9.43;5.03;;;17.20;99.90;;;;;;5064942;28;20489;-77
2023/09/30 07:00:09;;;;;;;9.70;4.13;;;17.30;99.90;;;;;;5057876;28;20473;-77
2023/09/30 07:02:37;;;;;;;8.43;4.70;;;17.40;99.90;;;;;;5065150;28;20448;-77
2023/09/30 07:05:08;;;;;;;8.73;6.00;;;17.60;99.90;;;;;;5056269;28;21041;-77
2023/09/30 07:07:35;;;;;;;8.30;5.60;;;17.80;99.90;;;;;;5065356;28;20486;-77
2023/09/30 07:10:04;;;;;;;13.20;4.83;;;18.00;99.90;;;;;;5060105;28;20460;-76
2023/09/30 07:12:31;;;;;;;11.00;4.53;;;17.90;99.90;;;;;;5062510;28;20466;-78
2023/09/30 07:14:58;;;;;;;7.67;4.33;;;18.00;99.90;;;;;;5061657;28;20520;-77
2023/09/30 07:17:26;;;;;;;7.53;3.70;;;18.00;99.90;;;;;;5063584;28;21152;-78
2023/09/30 07:19:53;;;;;;;9.13;4.73;;;18.10;99.90;;;;;;5059787;28;20947;-77
2023/09/30 07:22:21;;;;;;;9.10;4.23;;;18.20;99.90;;;;;;5059470;28;20464;-78
2023/09/30 07:24:48;;;;;;;8.70;4.80;;;18.30;99.90;;;;;;5061252;28;21730;-77
2023/09/30 07:27:15;;;;;;;8.40;4.00;;;18.40;99.90;;;;;;5057713;28;21231;-77
2023/09/30 07:29:42;;;;;;;6.70;4.17;;;18.30;99.90;;;;;;5057399;28;20549;-77
2023/09/30 07:32:09;;;;;;;9.03;3.60;;;18.40;99.90;;;;;;5065442;28;20502;-77
2023/09/30 07:34:36;;;;;;;6.23;3.30;;;18.20;99.90;;;;;;5059692;28;20577;-79
2023/09/30 07:37:03;;;;;;;9.53;4.77;;;18.10;99.90;;;;;;5064691;28;20459;-79
2023/09/30 07:39:32;;;;;;;11.23;4.80;;;18.10;99.90;;;;;;5063051;28;20517;-76
2023/09/30 07:41:59;;;;;;;6.30;3.60;;;18.10;99.90;;;;;;5061616;28;20510;-77
2023/09/30 07:44:26;;;;;;;12.43;4.43;;;18.20;99.90;;;;;;5054128;28;20517;-76
2023/09/30 07:46:53;;;;;;;10.27;3.50;;;18.20;99.90;;;;;;5064269;28;20460;-77
2023/09/30 07:49:20;;;;;;;6.40;2.60;;;18.20;99.90;;;;;;5058032;28;20539;-80
2023/09/30 07:51:47;;;;;;;13.17;4.20;;;18.30;99.90;;;;;;5063217;28;20496;-78
2023/09/30 07:54:14;;;;;;;6.70;2.90;;;18.30;99.90;;;;;;5060238;28;21087;-77
2023/09/30 07:56:42;;;;;;;6.17;3.50;;;18.40;99.90;;;;;;5052744;28;21176;-84
2023/09/30 07:59:09;;;;;;;6.37;3.60;;;18.50;99.90;;;;;;5060962;28;20456;-77
2023/09/30 08:01:37;;;;;;;5.77;3.77;;;18.50;99.90;;;;;;5061409;28;20499;-80
2023/09/30 08:04:04;;;;;;;9.73;3.90;;;18.40;99.90;;;;;;5056322;28;20478;-78
2023/09/30 08:06:31;;;;;;;6.40;4.60;;;18.50;99.90;;;;;;5062597;28;20452;-77
2023/09/30 08:08:58;;;;;;;4.90;1.93;;;18.50;99.90;;;;;;5054770;28;20544;-78
2023/09/30 08:11:27;;;;;;;10.70;3.20;;;18.50;99.90;;;;;;5061247;28;21038;-78
2023/09/30 08:13:55;;;;;;;10.97;3.40;;;18.60;99.90;;;;;;5063105;28;20488;-77
2023/09/30 08:16:22;;;;;;;9.23;3.00;;;18.60;99.90;;;;;;5066252;28;20439;-78
2023/09/30 08:18:49;;;;;;;8.00;4.73;;;18.50;99.90;;;;;;5063115;28;20453;-79
2023/09/30 08:21:16;;;;;;;4.57;2.87;;;18.70;99.90;;;;;;5067781;28;20967;-78
2023/09/30 08:23:44;;;;;;;6.87;3.30;;;18.80;99.90;;;;;;5065359;28;20517;-78
2023/09/30 08:26:11;;;;;;;7.00;3.97;;;18.80;99.90;;;;;;5066293;28;20458;-79
2023/09/30 08:28:38;;;;;;;8.20;3.13;;;18.90;99.90;;;;;;5063970;28;20448;-78
2023/09/30 08:31:07;;;;;;;10.10;4.33;;;19.10;99.90;;;;;;5067880;28;20443;-78
2023/09/30 08:33:35;;;;;;;7.83;3.43;;;19.20;99.90;;;;;;5064757;28;20525;-77
2023/09/30 08:36:07;;;;;;;9.40;4.30;;;19.50;99.90;;;;;;5063182;28;20449;-78
2023/09/30 08:38:35;;;;;;;7.30;3.07;;;19.50;99.90;;;;;;5059101;28;20448;-78
2023/09/30 08:41:03;;;;;;;6.07;3.73;;;19.60;99.90;;;;;;5060274;28;20571;-77
2023/09/30 08:43:31;;;;;;;7.83;4.17;;;19.50;99.90;;;;;;5062640;28;20477;-80
2023/09/30 08:45:59;;;;;;;10.93;4.97;;;19.50;99.90;;;;;;5061465;28;20494;-80
2023/09/30 08:48:29;;;;;;;8.17;4.27;;;19.40;99.90;;;;;;5065420;28;20463;-78
2023/09/30 08:50:57;;;;;;;7.80;3.00;;;19.40;99.90;;;;;;5064730;28;20494;-79
2023/09/30 08:53:24;;;;;;;9.67;4.50;;;19.40;99.90;;;;;;5064391;28;20486;-78
2023/09/30 08:55:55;;;;;;;10.63;5.30;;;19.40;99.90;;;;;;5059850;28;20994;-78
2023/09/30 08:58:25;;;;;;;10.30;6.00;;;19.20;99.90;;;;;;5055825;28;20531;-78
2023/09/30 09:00:52;;;;;;;7.10;4.57;;;19.30;99.90;;;;;;5058796;28;20519;-77
2023/09/30 09:03:20;;;;;;;7.40;3.40;;;19.30;99.90;;;;;;5056879;28;20827;-78
2023/09/30 09:05:56;;;;;;;6.20;3.73;;;19.10;99.90;;;;;;5062687;28;20541;-79
2023/09/30 09:08:23;;;;;;;7.70;3.57;;;19.00;99.90;;;;;;5063147;28;21026;-78
2023/09/30 09:11:03;;;;;;;10.37;4.87;;;19.10;99.90;;;;;;5063978;28;20539;-78
2023/09/30 09:13:45;;;;;;;6.40;3.40;;;19.10;99.90;;;;;;5062429;28;20480;-79
2023/09/30 09:16:12;;;;;;;20.03;4.37;;;19.10;99.90;;;;;;5058374;28;20999;-79
2023/09/30 09:18:40;;;;;;;5.43;3.80;;;19.10;99.90;;;;;;5062679;28;20464;-78
2023/09/30 09:21:13;;;;;;;7.23;2.33;;;19.30;99.90;;;;;;5065103;28;20508;-78
2023/09/30 09:23:41;;;;;;;3.90;2.40;;;19.30;99.90;;;;;;5062008;28;20447;-77
2023/09/30 09:26:08;;;;;;;5.30;3.30;;;19.50;99.90;;;;;;5059028;28;20539;-79
2023/09/30 09:28:36;;;;;;;6.17;2.57;;;19.60;99.90;;;;;;5064622;28;21116;-78
2023/09/30 09:31:03;;;;;;;9.80;3.37;;;19.70;99.90;;;;;;5062842;28;20539;-78
2023/09/30 09:33:37;;;;;;;7.23;2.60;;;19.80;99.90;;;;;;5062718;28;20546;-77
2023/09/30 09:36:04;;;;;;;6.00;4.20;;;20.00;99.90;;;;;;5059334;28;20536;-78
2023/09/30 09:38:45;;;;;;;4.80;2.50;;;20.00;99.90;;;;;;5058877;28;20469;-77
2023/09/30 09:41:11;;;;;;;6.30;2.80;;;20.00;99.90;;;;;;5061099;28;21013;-81
2023/09/30 09:43:39;;;;;;;5.20;2.70;;;20.20;99.90;;;;;;5054599;28;20944;-77
2023/09/30 09:46:09;;;;;;;6.83;3.30;;;20.70;98.80;;;;;;5062016;28;20468;-79
2023/09/30 09:48:36;;;;;;;7.13;2.17;;;21.00;97.30;;;;;;5056650;28;20447;-78
2023/09/30 09:51:05;;;;;;;5.23;2.90;;;20.70;95.00;;;;;;5062183;28;20487;-80
2023/09/30 09:53:36;;;;;;;5.20;3.73;;;20.30;96.00;;;;;;5062343;28;20586;-78
2023/09/30 09:56:07;;;;;;;6.73;2.93;;;20.00;96.50;;;;;;5062512;28;20479;-78
2023/09/30 09:58:34;;;;;;;8.23;3.63;;;19.90;98.60;;;;;;5053741;28;20459;-79
2023/09/30 10:01:03;;;;;;;4.90;2.80;;;19.80;99.00;;;;;;5066971;28;20541;-78
2023/09/30 10:03:30;;;;;;;6.23;2.60;;;20.30;99.20;;;;;;5053679;28;20976;-78
2023/09/30 10:05:58;;;;;;;5.93;3.10;;;20.90;97.30;;;;;;5058834;28;20807;-78
2023/09/30 10:08:34;;;;;;;7.80;3.43;;;21.20;94.80;;;;;;5062853;28;20766;-78
2023/09/30 10:11:03;;;;;;;5.07;3.33;;;21.40;93.70;;;;;;5063847;28;20559;-89
2023/09/30 10:13:53;;;;;;;5.87;3.20;;;21.50;91.50;;;;;;5062598;28;20471;-77
2023/09/30 10:16:48;;;;;;;6.63;3.80;;;21.20;91.70;;;;;;5062813;28;20459;-79
2023/09/30 10:19:17;;;;;;;5.70;3.47;;;21.50;94.00;;;;;;5056510;28;20499;-78
2023/09/30 10:22:19;;;;;;;4.57;2.80;;;21.50;93.10;;;;;;5059450;28;20464;-77
2023/09/30 10:24:46;;;;;;;4.87;3.13;;;21.20;91.90;;;;;;5055491;28;20465;-78
2023/09/30 10:27:47;;;;;;;8.00;4.30;;;20.70;92.10;;;;;;5065635;28;21240;-79
2023/09/30 10:30:16;;;;;;;8.33;3.63;;;20.60;90.90;;;;;;5022162;28;20872;-78
2023/09/30 10:33:14;;;;;;;10.10;4.57;;;20.50;90.70;;;;;;5045643;28;20818;-78
2023/09/30 10:35:48;;;;;;;12.00;5.27;;;20.30;90.90;;;;;;5054915;28;20493;-78
2023/09/30 10:38:37;;;;;;;9.37;4.53;;;20.20;90.30;;;;;;5061671;28;20448;-78
2023/09/30 10:41:05;;;;;;;11.90;4.20;;;20.20;91.50;;;;;;5058322;28;20831;-79
2023/09/30 10:43:35;;;;;;;14.70;6.07;;;20.20;90.60;;;;;;5062958;28;20469;-78
2023/09/30 10:46:05;;;;;;;14.93;5.50;;;20.20;90.90;;;;;;5060793;28;20493;-79
2023/09/30 10:48:40;;;;;;;9.57;4.93;;;20.40;91.50;;;;;;5065211;28;20451;-79
2023/09/30 10:51:20;;;;;;;10.47;4.33;;;20.60;91.20;;;;;;5063752;28;20553;-78
2023/09/30 10:53:51;;;;;;;12.13;5.10;;;20.70;91.50;;;;;;5052714;28;20487;-78
2023/09/30 10:56:18;;;;;;;14.40;4.67;;;20.60;91.00;;;;;;5059902;28;20455;-79
2023/09/30 10:58:51;;;;;;;10.53;6.40;;;20.50;91.30;;;;;;5060128;28;20456;-79
2023/09/30 11:01:20;;;;;;;8.90;3.50;;;20.50;91.60;;;;;;5065606;28;20452;-78
2023/09/30 11:03:49;;;;;;;11.63;4.33;;;20.40;90.40;;;;;;5064976;28;20480;-81
2023/09/30 11:06:19;;;;;;;8.70;4.27;;;20.40;92.50;;;;;;5062084;28;20543;-81
2023/09/30 11:08:51;;;;;;;8.10;4.40;;;20.50;90.10;;;;;;5059004;28;20456;-79
2023/09/30 11:11:18;;;;;;;9.80;4.50;;;20.50;91.10;;;;;;5060539;28;20455;-78
2023/09/30 11:13:46;;;;;;;9.87;5.47;;;20.80;91.10;;;;;;5055193;28;20507;-77
2023/09/30 11:16:13;;;;;;;13.97;6.93;;;20.90;90.70;;;;;;5060623;28;20459;-78
2023/09/30 11:18:40;;;;;;;9.80;5.43;;;21.10;90.50;;;;;;5054273;28;20514;-79
2023/09/30 11:21:10;;;;;;;8.57;5.30;;;21.10;90.00;;;;;;5059091;28;20537;-77
2023/09/30 11:23:38;;;;;;;10.07;4.60;;;21.30;88.80;;;;;;5064494;28;20510;-77
2023/09/30 11:26:05;;;;;;;11.67;6.40;;;21.20;85.00;;;;;;5058847;28;21114;-79
2023/09/30 11:28:41;;;;;;;11.40;5.83;;;21.30;88.50;;;;;;5064425;28;20539;-78
2023/09/30 11:31:14;;;;;;;12.00;5.13;;;21.10;83.30;;;;;;5061806;28;20497;-77
2023/09/30 11:33:52;;;;;;;10.87;5.10;;;21.00;84.30;;;;;;5054446;28;20463;-77
2023/09/30 11:36:21;;;;;;;11.90;6.00;;;20.80;86.50;;;;;;5064183;28;20946;-79
2023/09/30 11:38:49;;;;;;;12.83;5.70;;;20.80;86.20;;;;;;5058890;28;21029;-77
2023/09/30 11:41:18;;;;;;;11.27;5.47;;;21.00;87.90;;;;;;5051641;28;20460;-77
2023/09/30 11:44:01;;;;;;;15.40;7.07;;;21.00;87.20;;;;;;5064118;28;20440;-77
2023/09/30 11:46:29;;;;;;;11.00;5.60;;;20.90;81.40;;;;;;5060735;28;20478;-77
2023/09/30 11:49:01;;;;;;;12.10;5.50;;;21.10;85.00;;;;;;5057489;28;21047;-77
2023/09/30 11:51:28;;;;;;;13.13;6.50;;;21.40;87.30;;;;;;5063594;28;20529;-77
2023/09/30 11:53:57;;;;;;;15.60;7.27;;;21.50;86.30;;;;;;5055132;28;20522;-79
2023/09/30 11:56:28;;;;;;;19.73;8.27;;;21.40;84.80;;;;;;5068470;28;20540;-78
2023/09/30 11:58:56;;;;;;;24.30;9.87;;;21.30;78.00;;;;;;5064064;28;20459;-78
2023/09/30 12:01:25;;;;;;;19.00;9.40;;;21.10;78.20;;;;;;5067253;28;20452;-78
2023/09/30 12:03:55;;;;;;;16.10;9.20;;;21.00;72.90;;;;;;5064889;28;20490;-78
2023/09/30 12:06:23;;;;;;;19.33;10.50;;;21.00;70.70;;;;;;5068162;28;20452;-78
2023/09/30 12:08:51;;;;;;;24.17;10.37;;;21.00;71.00;;;;;;5061860;28;20456;-78
2023/09/30 12:11:18;;;;;;;19.30;10.97;;;21.20;75.20;;;;;;5068810;28;20942;-77
2023/09/30 12:13:48;;;;;;;23.63;11.87;;;21.30;71.10;;;;;;5067940;28;20464;-82
2023/09/30 12:16:15;;;;;;;21.40;12.17;;;21.40;71.30;;;;;;5067943;28;20492;-78
2023/09/30 12:18:42;;;;;;;28.70;10.00;;;21.40;71.80;;;;;;5064188;28;20459;-81
2023/09/30 12:21:11;;;;;;;17.33;10.20;;;21.30;69.90;;;;;;5062287;28;20460;-78
2023/09/30 12:23:38;;;;;;;18.13;10.23;;;21.10;66.70;;;;;;5061065;28;20529;-77
2023/09/30 12:26:05;;;;;;;19.67;10.93;;;21.10;69.80;;;;;;5065811;28;20528;-79
2023/09/30 12:28:33;;;;;;;20.57;10.20;;;21.30;71.00;;;;;;5068913;28;20454;-80
2023/09/30 12:31:02;;;;;;;18.37;10.73;;;21.20;65.50;;;;;;5062655;28;20453;-79
2023/09/30 12:33:30;;;;;;;25.37;11.83;;;21.10;65.50;;;;;;5062116;28;20447;-78
2023/09/30 12:35:57;;;;;;;28.27;13.10;;;21.10;66.00;;;;;;5065146;28;20519;-78
2023/09/30 12:38:27;;;;;;;19.47;9.30;;;21.00;66.30;;;;;;5067024;28;20542;-79
2023/09/30 12:40:54;;;;;;;20.20;10.50;;;21.10;67.60;;;;;;5058152;28;20498;-78
2023/09/30 12:43:22;;;;;;;22.10;10.53;;;21.10;64.10;;;;;;5058710;28;20529;-79
2023/09/30 12:45:49;;;;;;;26.43;11.73;;;21.30;63.80;;;;;;5055866;28;20452;-82
2023/09/30 12:48:17;;;;;;;21.30;10.47;;;21.20;62.20;;;;;;5050973;28;20448;-79